Invesco Mortgage Capital (IVR) Latest Bloomsberg Price


Mffais Ranking #1368 Overall / #19 Industry
Industry: Mortgage Finance

Number of Companies: 134 (Ranking #1286 Overall/#13 Industry)
Inflow: $ 31,874 (K) (Ranking #1533 Overall/#16 Industry)
Outflow: $ -32,688 (K)
Mffais Flow: $ -814 (K) (Ranking #1368 Overall/#19 Industry)


Receive a FREE weekly executive review of stocks moving into the top 10, taking the top industy spot or moving up within their industry. Sent directly to your Inbox every Saturday. Sign up today and get last week's review immediately sent to you.

We value and respect your privacy. Please read our Terms and Conditions which states our firm commitment to your privacy. Your email address will not be shared with a third party, nor will it be sold or used for purposes other than subscription for the weekly review.

Owner CPOR Shares Action Qty Chg Invested (K) Total Current Value (K)
Whitebox Advisors Llc 2016-09-30 1,341,047 Added More 658,502 $ 9,462 $ 19,270
Beck Capital Management Llc 2016-09-30 193,067 New Holding 193,067 $ 2,774 $ 2,774
Global X Management Co Llc 2016-09-30 1,406,918 Added More 145,803 $ 2,095 $ 20,217
First Allied Advisory Services Inc 2016-09-30 123,880 New Holding 123,880 $ 1,780 $ 1,780
Parametric Portfolio Associates Llc 2016-09-30 263,073 Added More 83,654 $ 1,202 $ 3,780
Gsa Capital Partners Llp 2016-09-30 190,636 Added More 72,846 $ 1,046 $ 2,739
Zacks Investment Management 2016-09-30 70,207 New Holding 70,207 $ 1,008 $ 1,008
Moore Capital Management Lp 2016-09-30 120,000 Added More 70,000 $ 1,005 $ 1,724
Connor Clark Lunn Investment Management Ltd 2016-09-30 146,700 Added More 60,900 $ 875 $ 2,108
Hillsdale Investment Management Inc 2016-09-30 78,400 Added More 60,100 $ 863 $ 1,126
Meeder Asset Management Inc 2016-09-30 57,549 New Holding 57,549 $ 826 $ 826
Hancock Holding Co 2016-09-30 57,062 New Holding 57,062 $ 819 $ 819
Menta Capital Llc 2016-09-30 161,433 Added More 52,273 $ 751 $ 2,319
Jane Street Group Llc 2016-09-30 50,459 New Holding 50,459 $ 725 $ 725
Orinda Asset Management Llc 2016-09-30 50,000 New Holding 50,000 $ 718 $ 718
Old Mutual Global Investors Uk Ltd 2016-09-30 46,547 New Holding 46,547 $ 668 $ 668
Northern Trust Corp 2016-09-30 1,297,190 Added More 42,803 $ 615 $ 18,640
Quadrature Capital Ltd 2016-09-30 41,373 New Holding 41,373 $ 594 $ 594
Piedmont Investment Advisors Llc 2016-09-30 38,030 Added More 37,765 $ 542 $ 546
Invictus Rg 2016-09-30 27,670 New Holding 27,670 $ 397 $ 397
Van Eck Associates Corp 2016-09-30 296,312 Added More 26,091 $ 374 $ 4,258
Indexiq Advisors Llc 2016-09-30 112,004 Added More 21,895 $ 314 $ 1,609
Legal General Group Plc 2016-09-30 148,372 Added More 17,690 $ 254 $ 2,132
Stevens Capital Management Lp 2016-09-30 15,612 New Holding 15,612 $ 224 $ 224
Weiss Asset Management Lp 2016-09-30 15,387 New Holding 15,387 $ 221 $ 221
Fifth Third Bancorp 2016-09-30 15,340 New Holding 15,340 $ 220 $ 220
Cetera Advisor Networks Llc 2016-09-30 14,093 New Holding 14,093 $ 202 $ 202
Ironsides Asset Advisors Llc 2016-09-30 12,628 New Holding 12,628 $ 181 $ 181
Ladenburg Thalmann Financial Services Inc 2016-09-30 93,220 Added More 10,763 $ 154 $ 1,339
Profund Advisors Llc 2016-09-30 10,503 New Holding 10,503 $ 150 $ 150
Cipher Capital Lp 2016-09-30 336,776 Added More 9,953 $ 143 $ 4,839
Raymond James Associates 2016-09-30 19,589 Added More 8,557 $ 122 $ 281
Advisor Group Inc 2016-09-30 21,029 Added More 7,299 $ 104 $ 302
Clarivest Asset Management Llc 2016-09-30 136,725 Added More 5,400 $ 77 $ 1,964
Rhumbline Advisers 2016-09-30 149,630 Added More 2,350 $ 33 $ 2,150
California State Teachers Retirement System 2016-09-30 238,337 Added More 2,200 $ 31 $ 3,424
Private Advisor Group Llc 2016-09-30 37,106 Added More 2,034 $ 29 $ 533
Teachers Advisors Inc 2016-09-30 184,939 Added More 2,014 $ 28 $ 2,657
Lebenthal Asset Management Llc 2016-09-30 2,000 New Holding 2,000 $ 28 $ 28
Investors Capital Advisory Services 2016-06-30 17,101 Added More 1,904 $ 26 $ 234
Blackrock Investment Management Llc 2016-09-30 466,587 Added More 1,637 $ 23 $ 6,704
Msi Financial Services Inc 2016-09-30 6,550 Added More 1,501 $ 21 $ 94
Cable Hill Partners Llc 2016-09-30 1,500 New Holding 1,500 $ 21 $ 21
Cutler Group Lp 2016-09-30 1,736 Added More 1,236 $ 17 $ 24
Integrated Wealth Management 2016-09-30 1,130 New Holding 1,130 $ 16 $ 16
Blackrock Inc 2016-09-30 35,278 Added More 686 $ 9 $ 506
Curbstone Financial Management Corp 2016-09-30 42,600 Added More 600 $ 8 $ 612
Creative Planning 2016-09-30 48,895 Added More 534 $ 7 $ 702
Zurcher Kantonalbank Zurich Cantonalbank 2016-09-30 2,885 Added More 447 $ 6 $ 41
Penserra Capital Management Llc 2016-09-30 1,608 Added More 411 $ 5 $ 23
Point72 Asia Hong Kong Ltd 2016-09-30 400 New Holding 400 $ 5 $ 5
Aperio Group Llc 2016-09-30 35,803 Added More 337 $ 4 $ 514
Pnc Financial Services Group Inc 2016-09-30 4,420 Added More 333 $ 4 $ 63
Synovus Financial Corp 2016-09-30 4,575 Added More 322 $ 4 $ 65
Raymond James Financial Services Advisors Inc 2016-09-30 12,035 Added More 270 $ 3 $ 172
Sei Investments Co 2016-09-30 751 Added More 261 $ 3 $ 10
Next Financial Group Inc 2016-09-30 240 New Holding 240 $ 3 $ 3
American International Group Inc 2016-09-30 64,926 Added More 99 $ 1 $ 932
Martingale Asset Management L P 2016-09-30 121,972 Added More 94 $ 1 $ 1,752
Sonora Investment Management Llc 2016-09-30 23,115 No Change 0 $ 0 $ 332
Jacobi Capital Management Llc 2016-09-30 1,100 No Change 0 $ 0 $ 15
Patten Group Inc 2016-09-30 6,000 No Change 0 $ 0 $ 86
Psagot Investment House Ltd 2016-09-30 6,000 No Change 0 $ 0 $ 86
Qs Investors Llc 2016-09-30 23 No Change 0 $ 0 $ 0
Nationwide Fund Advisors 2016-09-30 73,347 No Change 0 $ 0 $ 1,053
Mangrove Partners 2016-09-30 2,117,007 No Change 0 $ 0 $ 30,421
Finemark National Bank Trust 2016-09-30 1,000 No Change 0 $ 0 $ 14
M R Capital Management Inc 2016-09-30 0 New Holding 0 $ 0 $ 0
New York State Common Retirement Fund 2016-09-30 114,600 No Change 0 $ 0 $ 1,646
Advisory Services Network Llc 2016-09-30 7,150 No Change 0 $ 0 $ 102
Spirit Of America Management Corp Ny 2016-09-30 7,000 No Change 0 $ 0 $ 100
American Financial Group Inc 2016-09-30 203,700 No Change 0 $ 0 $ 2,927
Gabelli Funds Llc 2016-09-30 58,700 No Change 0 $ 0 $ 843
Penn Mutual Life Insurance Co 2016-09-30 242,000 No Change 0 $ 0 $ 3,477
Bb T Corp 2016-09-30 32,075 No Change 0 $ 0 $ 460
Deere Co 2016-09-30 23,023 No Change 0 $ 0 $ 330
M T Bank Corp 2016-09-30 24,585 Sold Some -14 $ -0 $ 353
Sterling Capital Management Llc 2016-09-30 64,894 Sold Some -122 $ -1 $ 932
Cambridge Investment Research Advisors Inc 2016-09-30 36,791 Sold Some -313 $ -4 $ 528
Enterprise Financial Services Corp 2016-09-30 548 Sold Some -450 $ -6 $ 7
Stifel Financial Corp 2016-09-30 57,936 Sold Some -495 $ -7 $ 832
First Interstate Bank 2016-09-30 1,915 Sold Some -500 $ -7 $ 27
Strs Ohio 2016-09-30 35,600 Sold Some -1,300 $ -18 $ 511
Piermont Capital Management Inc 2016-09-30 213,300 Sold Some -1,400 $ -20 $ 3,065
Baird Financial Group Inc 2016-09-30 297,705 Sold Some -1,541 $ -22 $ 4,278
Risk Paradigm Group Llc 2016-09-30 0 Sold All -2,170 $ -31 $ 0
Ifp Advisors Inc 2016-09-30 13,666 Sold Some -2,469 $ -35 $ 196
Sigma Planning Corp 2016-09-30 19,629 Sold Some -3,142 $ -45 $ 282
Acrospire Investment Management Llc 2016-09-30 4,500 Sold Some -3,500 $ -50 $ 64
Commonwealth Equity Services Inc 2016-09-30 14,954 Sold Some -3,605 $ -51 $ 214
Teacher Retirement System Of Texas 2016-09-30 11,971 Sold Some -3,946 $ -56 $ 172
Pointe Capital Management Llc 2016-09-30 85,000 Sold Some -4,228 $ -60 $ 1,221
Springbok Capital Management Llc 2016-09-30 0 Sold All -4,400 $ -63 $ 0
Walleye Trading Llc 2016-09-30 5,858 Sold Some -4,442 $ -63 $ 84
Fuller Thaler Asset Management Inc 2016-09-30 4,600 Sold Some -4,500 $ -64 $ 66
Us Bancorp De 2016-09-30 6,014 Sold Some -5,263 $ -75 $ 86
Sphinx Trading Lp 2016-09-30 0 Sold All -6,500 $ -93 $ 0
Proshare Advisors Llc 2016-09-30 36,666 Sold Some -6,549 $ -94 $ 526
Cubist Systematic Strategies Llc 2016-09-30 22,879 Sold Some -7,026 $ -100 $ 328
Private Capital Management Inc 2016-09-30 27,000 Sold Some -7,600 $ -109 $ 387
Peak6 Investments L P 2016-09-30 124,100 Sold Some -7,625 $ -109 $ 1,783
Swiss National Bank 2016-09-30 184,900 Sold Some -9,600 $ -137 $ 2,657
Dynamic Technology Lab Private Ltd 2016-09-30 0 Sold All -10,151 $ -145 $ 0
Qcm Cayman Ltd 2016-09-30 0 Sold All -10,521 $ -151 $ 0
Princeton Alpha Management Lp 2016-09-30 0 Sold All -10,576 $ -151 $ 0
Tower Research Capital Llc Trc 2016-09-30 1,774 Sold Some -10,632 $ -152 $ 25
Burney Co 2016-09-30 0 Sold All -11,111 $ -159 $ 0
Virtu Financial Llc 2016-09-30 0 Sold All -11,552 $ -166 $ 0
C M Bidwell Associates Ltd 2016-09-30 0 Sold All -12,050 $ -173 $ 0
Capital Investment Advisors Llc 2016-09-30 0 Sold All -12,100 $ -173 $ 0
Quantbot Technologies Lp 2016-09-30 10,397 Sold Some -12,949 $ -186 $ 149
Quantitative Systematic Strategies Llc 2016-09-30 0 Sold All -13,231 $ -190 $ 0
Pvg Asset Management 2016-06-30 294,903 Sold Some -14,238 $ -194 $ 4,037
Bluecrest Capital Management Ltd 2016-09-30 0 Sold All -14,218 $ -204 $ 0
Mackenzie Financial Corp 2016-09-30 230,447 Sold Some -14,335 $ -205 $ 3,311
Sg Americas Securities Llc 2016-09-30 19,619 Sold Some -15,330 $ -220 $ 281
Putnam Investments Llc 2016-09-30 0 Sold All -22,074 $ -317 $ 0
Systematic Financial Management Lp 2016-09-30 110,015 Sold Some -25,560 $ -367 $ 1,580
Emerald Acquisition Ltd 2016-09-30 6,751 Sold Some -26,513 $ -380 $ 97
Guggenheim Capital Llc 2016-09-30 350,606 Sold Some -32,476 $ -466 $ 5,038
Kames Capital Plc 2016-09-30 428,245 Sold Some -36,243 $ -520 $ 6,153
Kcg Holdings Inc 2016-09-30 20,365 Sold Some -39,048 $ -561 $ 292
A R T Advisors Llc 2016-09-30 0 Sold All -40,266 $ -578 $ 0
West Family Investments Inc 2016-09-30 10,000 Sold Some -50,834 $ -730 $ 143
Capstone Investment Advisors Llc 2016-09-30 0 Sold All -61,700 $ -886 $ 0
Capital Fund Management S A 2016-09-30 89,478 Sold Some -78,414 $ -1,126 $ 1,285
Yorktown Management Research Co Inc 2016-09-30 550,000 Sold Some -80,000 $ -1,149 $ 7,903
Advisors Asset Management Inc 2016-09-30 1,051,228 Sold Some -87,981 $ -1,264 $ 15,106
Pdt Partners Llc 2016-09-30 71,335 Sold Some -99,465 $ -1,429 $ 1,025
Css Llc Il 2016-09-30 317,849 Sold Some -139,600 $ -2,006 $ 4,567
Chicago Equity Partners Llc 2016-09-30 0 Sold All -181,660 $ -2,610 $ 0
Clear Harbor Asset Management Llc 2016-09-30 29,575 Sold Some -255,585 $ -3,672 $ 424
Thrivent Financial For Lutherans 2016-09-30 0 Sold All -276,350 $ -3,971 $ 0
Secor Capital Advisors Lp 2016-09-30 37,863 Sold Some -476,015 $ -6,840 $ 544